Time;durP1;ratioP1;P1;durP2;ratioP2;P2;SDS_P1;SDS_P2;PMS_P1;PMS_P2;Temp;Humidity;BMP_temperature;BMP_pressure;BME280_temperature;BME280_humidity;BME280_pressure;Samples;Min_cycle;Max_cycle;Signal;HPM_P1;HPM_P2
2023/10/11 00:06:07;;;;;;;;;;;;;;;19.65;88.77;100870.19;20872952;28;20142;-66
2023/10/11 00:16:10;;;;;;;4.38;3.05;;;;;;;19.61;88.82;100878.75;20873261;28;20638;-66
2023/10/11 00:26:17;;;;;;;3.90;2.70;;;;;;;19.60;88.79;100880.56;20872550;28;20055;-66
2023/10/11 00:36:31;;;;;;;7.63;3.42;;;;;;;19.59;88.66;100876.19;20854278;28;20053;-66
2023/10/11 00:46:43;;;;;;;6.05;3.40;;;;;;;19.58;88.53;100865.53;20854119;28;20124;-66
2023/10/11 00:56:47;;;;;;;4.73;3.50;;;;;;;19.56;88.51;100854.88;20871655;28;20141;-66
2023/10/11 01:06:49;;;;;;;6.10;3.45;;;;;;;19.54;88.75;100857.72;20870664;28;20356;-66
2023/10/11 01:16:51;;;;;;;5.40;3.58;;;;;;;19.53;88.89;100849.75;20882425;28;20057;-66
2023/10/11 01:26:56;;;;;;;5.20;3.60;;;;;;;19.53;89.17;100845.22;20885095;28;20049;-66
2023/10/11 01:36:59;;;;;;;;;;;;;;;19.53;89.30;100839.84;20885336;28;20044;-66
2023/10/11 01:47:01;;;;;;;7.15;3.83;;;;;;;19.50;89.63;100832.03;20858225;28;19927;-66
2023/10/11 01:57:03;;;;;;;5.95;3.60;;;;;;;19.50;89.78;100839.28;20882679;28;20102;-66
2023/10/11 02:07:05;;;;;;;6.57;4.57;;;;;;;19.50;90.22;100831.16;20881005;28;20041;-66
2023/10/11 02:17:07;;;;;;;6.72;3.80;;;;;;;19.48;90.21;100812.44;20846618;28;20052;-66
2023/10/11 02:27:17;;;;;;;6.30;3.97;;;;;;;19.48;90.48;100792.66;20880061;28;20080;-66
2023/10/11 02:37:22;;;;;;;6.10;4.10;;;;;;;19.47;90.51;100797.22;20880247;28;20130;-66
2023/10/11 02:47:25;;;;;;;5.22;4.00;;;;;;;19.46;90.52;100790.13;20879067;28;20420;-66
2023/10/11 02:57:27;;;;;;;5.10;3.60;;;;;;;19.46;90.56;100781.16;20878908;28;20786;-66
2023/10/11 03:07:33;;;;;;;5.07;3.25;;;;;;;19.44;90.82;100796.66;20877916;28;20055;-66
2023/10/11 03:17:40;;;;;;;6.20;4.40;;;;;;;19.41;90.91;100784.31;20858903;28;20052;-66
2023/10/11 03:27:48;;;;;;;5.45;3.80;;;;;;;19.40;91.05;100777.22;20876530;28;20060;-66
2023/10/11 03:37:58;;;;;;;5.97;3.88;;;;;;;19.36;90.83;100773.97;20874377;28;20128;-66
2023/10/11 03:48:01;;;;;;;4.65;3.30;;;;;;;19.34;90.92;100746.28;20874972;28;20041;-66
2023/10/11 03:58:03;;;;;;;5.82;3.35;;;;;;;19.34;90.79;100748.13;20874307;28;20044;-66
2023/10/11 04:08:11;;;;;;;6.00;3.72;;;;;;;19.32;90.96;100755.50;20873457;28;20170;-66
2023/10/11 04:18:55;;;;;;;4.55;3.42;;;;;;;19.30;90.95;100765.63;20873310;28;20045;-66
2023/10/11 04:28:41;;;;;;;4.73;3.20;;;;;;;19.29;90.92;100745.88;20867469;28;20061;-66
2023/10/11 04:38:47;;;;;;;5.20;3.63;;;;;;;19.27;91.04;100737.91;20847266;28;20054;-66
2023/10/11 04:48:49;;;;;;;5.00;3.20;;;;;;;19.27;91.04;100748.72;20802655;28;20053;-66
2023/10/11 04:58:54;;;;;;;5.68;4.00;;;;;;;19.25;91.01;100766.91;20887323;28;20678;-66
2023/10/11 05:09:03;;;;;;;;;;;;;;;19.25;90.89;100745.31;20887869;28;20428;-66
2023/10/11 05:19:06;;;;;;;4.75;3.30;;;;;;;19.22;90.99;100745.63;20886662;28;19924;-66
2023/10/11 05:29:23;;;;;;;4.97;3.58;;;;;;;19.21;91.04;100749.31;20885523;28;20223;-66
2023/10/11 06:00:19;;;;;;;4.97;3.50;;;;;;;19.20;91.09;100746.75;20881851;28;20044;-66
2023/10/11 06:10:29;;;;;;;5.30;3.83;;;;;;;19.20;91.23;100763.81;20853306;28;20412;-66
2023/10/11 06:20:38;;;;;;;6.25;4.13;;;;;;;19.19;91.27;100745.06;20858572;28;20076;-66
2023/10/11 06:30:48;;;;;;;5.28;4.18;;;;;;;19.20;91.04;100749.44;20903779;28;20606;-66
2023/10/11 06:40:54;;;;;;;5.38;3.95;;;;;;;19.21;91.15;100738.53;20962457;28;20121;-66
2023/10/11 06:50:57;;;;;;;5.55;4.35;;;;;;;19.23;91.34;100744.63;20934707;28;20053;-66
2023/10/11 07:00:59;;;;;;;6.75;4.93;;;;;;;19.25;91.41;100755.28;20828700;28;20555;-66
2023/10/11 07:21:07;;;;;;;8.77;5.13;;;;;;;19.25;91.80;100761.50;20805641;28;20592;-64
2023/10/11 07:31:16;;;;;;;;;;;;;;;19.24;92.36;100759.81;20792435;28;20052;-63
2023/10/11 07:41:18;;;;;;;7.25;4.80;;;;;;;19.30;91.89;100752.13;20807337;28;19925;-63
2023/10/11 07:51:20;;;;;;;5.68;3.90;;;;;;;19.37;91.49;100737.03;20795974;28;20676;-63
2023/10/11 08:01:30;;;;;;;7.17;4.93;;;;;;;19.43;91.56;100744.50;20815413;28;20392;-63
2023/10/11 08:11:45;;;;;;;5.85;4.25;;;;;;;19.38;91.39;100722.53;20821806;28;20068;-63
2023/10/11 08:21:54;;;;;;;7.40;4.77;;;;;;;19.51;91.04;100747.34;20831701;28;20301;-63
2023/10/11 08:31:57;;;;;;;6.90;4.95;;;;;;;19.55;91.22;100731.66;20847871;28;20132;-63
2023/10/11 08:41:59;;;;;;;7.03;5.32;;;;;;;19.56;91.28;100742.31;20790785;28;20078;-63
2023/10/11 08:52:05;;;;;;;6.70;5.00;;;;;;;19.58;91.39;100768.31;20788608;28;20059;-62
2023/10/11 09:02:09;;;;;;;6.07;4.25;;;;;;;19.60;91.47;100774.44;20779902;28;20057;-63
2023/10/11 09:12:23;;;;;;;6.03;4.43;;;;;;;19.60;91.89;100779.81;20803840;28;20080;-62
2023/10/11 09:22:25;;;;;;;6.63;3.90;;;;;;;19.59;92.17;100778.97;20800247;28;20574;-62
2023/10/11 09:32:33;;;;;;;5.15;4.40;;;;;;;19.62;93.00;100789.47;20807021;28;20057;-62
2023/10/11 09:42:37;;;;;;;5.95;4.80;;;;;;;19.70;93.05;100802.22;20826615;28;20076;-64
2023/10/11 09:52:45;;;;;;;7.22;4.85;;;;;;;19.76;93.07;100831.31;20821688;28;20057;-61
2023/10/11 10:02:51;;;;;;;7.10;4.45;;;;;;;19.81;93.45;100826.31;20816708;28;20194;-63
2023/10/11 10:12:58;;;;;;;6.45;4.38;;;;;;;19.85;93.65;100822.31;20808527;28;20489;-62
2023/10/11 10:23:15;;;;;;;5.47;4.13;;;;;;;19.92;93.71;100841.50;20798974;28;20145;-63
2023/10/11 10:33:19;;;;;;;6.70;4.70;;;;;;;20.00;93.93;100825.38;20808001;28;20609;-63
2023/10/11 10:43:23;;;;;;;6.22;4.05;;;;;;;20.07;93.84;100820.22;20819147;28;20057;-62
2023/10/11 10:53:36;;;;;;;5.87;4.20;;;;;;;20.14;93.82;100805.09;20809763;28;20053;-62
2023/10/11 11:03:41;;;;;;;6.50;4.13;;;;;;;20.21;93.69;100801.78;20812739;28;20076;-61
2023/10/11 11:13:47;;;;;;;4.38;3.38;;;;;;;20.35;93.21;100795.84;20820333;28;20060;-60
2023/10/11 11:23:50;;;;;;;5.90;3.80;;;;;;;20.32;95.13;100741.22;20786874;28;20547;-61
2023/10/11 11:34:26;;;;;;;6.15;4.28;;;;;;;20.52;95.02;100758.13;20799442;28;20053;-61
2023/10/11 11:44:28;;;;;;;6.05;4.53;;;;;;;20.55;97.82;100776.72;20784788;28;20045;-61
2023/10/11 11:54:30;;;;;;;5.82;3.63;;;;;;;20.64;98.07;100774.94;20795554;28;20053;-63
2023/10/11 12:04:36;;;;;;;8.05;4.10;;;;;;;20.63;98.25;100749.75;20804625;28;20079;-62
2023/10/11 12:14:38;;;;;;;8.20;3.70;;;;;;;20.76;97.89;100772.81;20825195;28;20064;-63
2023/10/11 12:24:44;;;;;;;6.55;3.70;;;;;;;20.78;97.72;100746.47;20806868;28;20652;-62
2023/10/11 12:34:46;;;;;;;6.72;4.05;;;;;;;20.82;98.64;100753.28;20821409;28;20053;-60
2023/10/11 12:44:51;;;;;;;4.95;3.67;;;;;;;20.94;98.32;100753.84;20815161;28;20080;-60
2023/10/11 12:54:53;;;;;;;9.45;4.03;;;;;;;21.02;98.46;100745.78;20800710;28;20049;-61
2023/10/11 13:04:58;;;;;;;9.15;5.18;;;;;;;21.15;100.00;100753.44;20813683;28;20413;-61
2023/10/11 13:15:02;;;;;;;9.57;5.95;;;;;;;21.22;100.00;100749.13;20819766;28;20536;-63
2023/10/11 13:25:04;;;;;;;8.93;4.80;;;;;;;21.21;100.00;100736.59;20846233;28;20056;-61
2023/10/11 13:35:12;;;;;;;6.28;4.22;;;;;;;21.18;100.00;100731.47;20814622;28;20056;-62
2023/10/11 13:45:16;;;;;;;5.85;3.90;;;;;;;21.13;100.00;100725.69;20808073;28;20053;-60
2023/10/11 13:55:25;;;;;;;3.78;2.80;;;;;;;21.09;100.00;100733.31;20812081;28;20530;-62
2023/10/11 14:05:32;;;;;;;4.90;2.75;;;;;;;21.08;100.00;100725.34;20820845;28;20118;-62
2023/10/11 14:15:38;;;;;;;5.57;2.80;;;;;;;21.10;100.00;100713.34;20839011;28;20068;-63
2023/10/11 14:25:41;;;;;;;3.35;2.28;;;;;;;21.09;100.00;100694.56;20849276;28;20667;-62
2023/10/11 14:35:43;;;;;;;4.22;2.80;;;;;;;21.08;99.42;100677.47;20815499;28;20056;-63
2023/10/11 14:45:47;;;;;;;6.13;2.63;;;;;;;21.09;98.74;100668.34;20823116;28;20045;-63
2023/10/11 14:55:54;;;;;;;3.35;2.35;;;;;;;21.09;98.19;100670.19;20802039;28;20056;-62
2023/10/11 15:05:56;;;;;;;3.88;2.30;;;;;;;21.09;97.69;100672.91;20790977;28;20056;-61
2023/10/11 15:15:57;;;;;;;3.08;2.47;;;;;;;21.07;97.57;100667.66;20777939;28;20559;-62
2023/10/11 15:26:00;;;;;;;3.78;2.50;;;;;;;21.04;97.90;100670.69;20786761;28;20613;-61
2023/10/11 15:36:08;;;;;;;3.38;2.20;;;;;;;21.04;97.53;100667.13;20792935;28;20056;-59
2023/10/11 15:46:12;;;;;;;4.05;2.35;;;;;;;20.95;97.41;100699.59;20782721;28;20053;-61
2023/10/11 15:56:15;;;;;;;4.30;2.50;;;;;;;20.85;97.83;100701.56;20787273;28;20049;-60
2023/10/11 16:06:17;;;;;;;4.72;2.30;;;;;;;20.79;98.28;100643.53;20792636;28;20049;-60
2023/10/11 16:16:21;;;;;;;4.10;2.80;;;;;;;20.77;99.73;100661.75;20792264;28;20414;-61
2023/10/11 16:26:23;;;;;;;7.82;5.50;;;;;;;20.77;100.00;100690.63;20796173;28;20617;-61
2023/10/11 16:36:25;;;;;;;6.22;2.70;;;;;;;20.76;100.00;100689.81;20782174;28;20048;-60
2023/10/11 16:46:30;;;;;;;6.00;2.78;;;;;;;20.83;100.00;100690.06;20805234;28;20056;-62
2023/10/11 16:56:33;;;;;;;6.25;3.33;;;;;;;20.86;100.00;100674.31;20808783;28;20059;-62
2023/10/11 17:06:35;;;;;;;4.57;2.90;;;;;;;20.91;100.00;100687.38;20827697;28;20081;-63
2023/10/11 17:16:38;;;;;;;4.57;2.80;;;;;;;20.91;100.00;100681.97;20803367;28;20053;-61
2023/10/11 17:26:40;;;;;;;4.15;2.83;;;;;;;20.95;100.00;100674.34;20803350;28;20132;-62
2023/10/11 17:36:41;;;;;;;5.45;3.28;;;;;;;20.91;100.00;100681.97;20821623;28;20053;-64
2023/10/11 17:46:43;;;;;;;6.80;3.15;;;;;;;20.83;100.00;100673.81;20839812;28;20048;-63
2023/10/11 17:56:45;;;;;;;6.95;3.90;;;;;;;20.80;100.00;100638.97;20832697;28;20536;-63
2023/10/11 18:06:47;;;;;;;5.38;3.42;;;;;;;20.70;100.00;100620.94;20854040;28;20049;-62
2023/10/11 18:16:49;;;;;;;5.32;3.47;;;;;;;20.77;100.00;100625.72;20866208;28;20582;-62
2023/10/11 18:26:51;;;;;;;4.30;3.40;;;;;;;20.79;100.00;100656.22;20815507;28;20059;-61
2023/10/11 18:36:53;;;;;;;5.50;4.10;;;;;;;20.77;100.00;100664.44;20816707;28;20053;-62
2023/10/11 18:46:55;;;;;;;4.88;4.10;;;;;;;20.75;100.00;100673.72;20842311;28;20488;-61
2023/10/11 18:56:57;;;;;;;5.70;4.32;;;;;;;20.67;100.00;100651.03;20807775;28;20053;-62
2023/10/11 19:07:05;;;;;;;8.80;5.10;;;;;;;20.63;100.00;100690.22;20857961;28;20382;-61
2023/10/11 19:17:07;;;;;;;7.22;5.05;;;;;;;20.59;100.00;100667.22;20850285;28;20052;-61
2023/10/11 19:27:09;;;;;;;6.57;4.93;;;;;;;20.55;100.00;100638.81;20862955;28;20056;-62
2023/10/11 19:37:11;;;;;;;7.00;5.50;;;;;;;20.51;100.00;100594.16;20859576;28;20045;-61
2023/10/11 19:47:13;;;;;;;8.18;5.40;;;;;;;20.49;100.00;100593.47;20840206;28;20049;-62
2023/10/11 19:57:15;;;;;;;6.30;4.57;;;;;;;20.49;100.00;100613.25;20782914;28;20049;-62
2023/10/11 20:07:17;;;;;;;6.35;4.80;;;;;;;20.53;100.00;100628.13;20784903;28;20076;-62
2023/10/11 20:17:19;;;;;;;7.25;4.72;;;;;;;20.53;100.00;100620.03;20781686;28;20131;-63
2023/10/11 20:27:21;;;;;;;7.30;5.22;;;;;;;20.55;100.00;100644.22;20797443;28;20049;-63
2023/10/11 20:37:23;;;;;;;11.48;7.22;;;;;;;20.40;100.00;100609.66;20821050;28;20132;-63
2023/10/11 20:47:27;;;;;;;10.43;7.30;;;;;;;20.41;100.00;100615.91;20846797;28;20049;-63
2023/10/11 20:57:32;;;;;;;9.80;7.45;;;;;;;20.36;100.00;100651.56;20788332;28;20056;-63
2023/10/11 21:07:36;;;;;;;8.93;7.03;;;;;;;20.31;100.00;100647.63;20788406;28;20571;-63
2023/10/11 21:17:43;;;;;;;9.43;7.22;;;;;;;20.26;100.00;100640.81;20788412;28;20381;-63
2023/10/11 21:27:45;;;;;;;9.38;7.65;;;;;;;20.24;100.00;100641.97;20815625;28;20069;-63
2023/10/11 21:37:50;;;;;;;9.30;7.38;;;;;;;20.22;100.00;100649.41;20883596;28;20060;-63
2023/10/11 21:47:53;;;;;;;10.38;6.93;;;;;;;20.21;100.00;100653.09;20844822;28;20517;-63
2023/10/11 21:57:57;;;;;;;9.65;7.22;;;;;;;20.18;100.00;100650.72;20800109;28;20053;-63
2023/10/11 22:07:59;;;;;;;8.97;6.23;;;;;;;20.16;100.00;100644.63;20800082;28;20052;-63
2023/10/11 22:18:01;;;;;;;11.25;6.82;;;;;;;20.13;100.00;100606.09;20799487;28;20092;-63
2023/10/11 22:28:07;;;;;;;12.00;7.63;;;;;;;20.10;100.00;100636.16;20798415;28;20052;-63
2023/10/11 22:38:08;;;;;;;11.07;6.65;;;;;;;20.08;100.00;100623.78;20796931;28;20390;-63
2023/10/11 22:48:10;;;;;;;10.57;7.03;;;;;;;20.06;100.00;100639.31;20849265;28;20543;-63
2023/10/11 22:58:17;;;;;;;8.15;6.05;;;;;;;20.06;100.00;100677.13;20878039;28;20049;-63
2023/10/11 23:08:22;;;;;;;9.48;5.53;;;;;;;20.06;100.00;100709.56;20877772;28;20045;-63
2023/10/11 23:18:27;;;;;;;6.45;4.70;;;;;;;20.06;100.00;100720.38;20877168;28;20049;-63
2023/10/11 23:28:29;;;;;;;6.72;4.30;;;;;;;20.04;100.00;100747.56;20875951;28;20554;-63
2023/10/11 23:38:42;;;;;;;4.32;3.42;;;;;;;20.03;100.00;100747.72;20874646;28;20045;-63
2023/10/11 23:48:45;;;;;;;4.63;3.25;;;;;;;19.99;100.00;100774.22;20874395;28;20053;-63
2023/10/11 23:58:56;;;;;;;4.50;3.40;;;;;;;19.99;100.00;100782.31;20872788;28;20049;-63
